sensor_id;sensor_type;location;lat;lon;timestamp;pressure;altitude;pressure_sealevel;temperature;humidity
72548;BME280;60570;50.848;6.776;2022-12-18T00:00:43;101736.31;;;0.99;60.00
72548;BME280;60570;50.848;6.776;2022-12-18T00:01:44;101729.53;;;0.90;60.43
72548;BME280;60570;50.848;6.776;2022-12-18T00:02:44;101736.31;;;0.87;60.31
72548;BME280;60570;50.848;6.776;2022-12-18T00:03:45;101731.66;;;0.88;60.55
72548;BME280;60570;50.848;6.776;2022-12-18T00:04:46;101731.44;;;0.89;60.45
72548;BME280;60570;50.848;6.776;2022-12-18T00:05:50;101735.84;;;0.90;60.48
72548;BME280;60570;50.848;6.776;2022-12-18T00:06:51;101731.06;;;0.98;60.38
72548;BME280;60570;50.848;6.776;2022-12-18T00:07:51;101730.13;;;0.92;60.44
72548;BME280;60570;50.848;6.776;2022-12-18T00:08:52;101727.38;;;0.92;60.31
72548;BME280;60570;50.848;6.776;2022-12-18T00:09:53;101733.47;;;0.82;60.40
72548;BME280;60570;50.848;6.776;2022-12-18T00:10:53;101731.78;;;0.93;60.57
72548;BME280;60570;50.848;6.776;2022-12-18T00:11:54;101731.22;;;0.91;60.09
72548;BME280;60570;50.848;6.776;2022-12-18T00:12:54;101731.56;;;0.95;60.37
72548;BME280;60570;50.848;6.776;2022-12-18T00:13:56;101726.53;;;0.91;60.25
72548;BME280;60570;50.848;6.776;2022-12-18T00:14:57;101732.00;;;0.91;60.17
72548;BME280;60570;50.848;6.776;2022-12-18T00:16:07;101724.56;;;0.87;60.29
72548;BME280;60570;50.848;6.776;2022-12-18T00:17:08;101728.22;;;0.93;60.22
72548;BME280;60570;50.848;6.776;2022-12-18T00:18:08;101727.97;;;0.94;60.39
72548;BME280;60570;50.848;6.776;2022-12-18T00:19:10;101735.13;;;0.95;60.35
72548;BME280;60570;50.848;6.776;2022-12-18T00:20:10;101736.56;;;0.86;60.34
72548;BME280;60570;50.848;6.776;2022-12-18T00:21:12;101739.03;;;0.87;60.45
72548;BME280;60570;50.848;6.776;2022-12-18T00:22:12;101749.03;;;0.82;60.41
72548;BME280;60570;50.848;6.776;2022-12-18T00:23:13;101747.41;;;0.81;60.70
72548;BME280;60570;50.848;6.776;2022-12-18T00:24:13;101745.72;;;0.80;60.48
72548;BME280;60570;50.848;6.776;2022-12-18T00:25:14;101749.25;;;0.92;60.50
72548;BME280;60570;50.848;6.776;2022-12-18T00:26:18;101740.81;;;0.93;60.09
72548;BME280;60570;50.848;6.776;2022-12-18T00:27:19;101742.97;;;0.91;60.24
72548;BME280;60570;50.848;6.776;2022-12-18T00:28:19;101742.50;;;0.83;60.50
72548;BME280;60570;50.848;6.776;2022-12-18T00:29:19;101742.19;;;0.79;60.68
72548;BME280;60570;50.848;6.776;2022-12-18T00:30:20;101740.13;;;0.86;60.49
72548;BME280;60570;50.848;6.776;2022-12-18T00:31:23;101736.09;;;0.89;60.21
72548;BME280;60570;50.848;6.776;2022-12-18T00:32:24;101736.44;;;0.93;59.94
72548;BME280;60570;50.848;6.776;2022-12-18T00:33:25;101734.66;;;0.86;60.12
72548;BME280;60570;50.848;6.776;2022-12-18T00:34:25;101728.00;;;0.82;60.20
72548;BME280;60570;50.848;6.776;2022-12-18T00:35:25;101742.50;;;0.83;60.30
72548;BME280;60570;50.848;6.776;2022-12-18T00:36:29;101739.50;;;0.96;60.08
72548;BME280;60570;50.848;6.776;2022-12-18T00:37:30;101728.47;;;0.91;60.00
72548;BME280;60570;50.848;6.776;2022-12-18T00:38:31;101736.31;;;0.87;60.10
72548;BME280;60570;50.848;6.776;2022-12-18T00:39:31;101734.41;;;0.88;60.05
72548;BME280;60570;50.848;6.776;2022-12-18T00:40:32;101727.75;;;0.84;60.03
72548;BME280;60570;50.848;6.776;2022-12-18T00:41:33;101732.41;;;0.83;60.39
72548;BME280;60570;50.848;6.776;2022-12-18T00:42:52;101740.84;;;0.82;60.39
72548;BME280;60570;50.848;6.776;2022-12-18T00:43:58;101741.59;;;0.77;60.34
72548;BME280;60570;50.848;6.776;2022-12-18T00:44:58;101746.44;;;0.87;60.35
72548;BME280;60570;50.848;6.776;2022-12-18T00:45:59;101745.59;;;0.86;60.24
72548;BME280;60570;50.848;6.776;2022-12-18T00:46:59;101750.22;;;0.86;60.26
72548;BME280;60570;50.848;6.776;2022-12-18T00:48:00;101745.22;;;0.95;60.02
72548;BME280;60570;50.848;6.776;2022-12-18T00:49:00;101742.94;;;1.03;59.49
72548;BME280;60570;50.848;6.776;2022-12-18T00:50:01;101744.28;;;0.89;59.62
72548;BME280;60570;50.848;6.776;2022-12-18T00:51:02;101740.72;;;0.88;59.89
72548;BME280;60570;50.848;6.776;2022-12-18T00:52:02;101738.81;;;0.89;60.07
72548;BME280;60570;50.848;6.776;2022-12-18T00:53:03;101731.56;;;0.95;59.71
72548;BME280;60570;50.848;6.776;2022-12-18T00:54:03;101735.94;;;0.96;59.80
72548;BME280;60570;50.848;6.776;2022-12-18T00:55:04;101738.19;;;0.99;59.46
72548;BME280;60570;50.848;6.776;2022-12-18T00:56:05;101733.22;;;0.84;59.94
72548;BME280;60570;50.848;6.776;2022-12-18T00:57:05;101735.16;;;0.83;60.02
72548;BME280;60570;50.848;6.776;2022-12-18T00:58:06;101732.28;;;0.78;59.82
72548;BME280;60570;50.848;6.776;2022-12-18T00:59:07;101733.00;;;0.74;60.14
72548;BME280;60570;50.848;6.776;2022-12-18T01:00:10;101735.28;;;0.77;60.13
72548;BME280;60570;50.848;6.776;2022-12-18T01:01:11;101723.97;;;0.85;60.14
72548;BME280;60570;50.848;6.776;2022-12-18T01:02:12;101725.63;;;0.74;60.19
72548;BME280;60570;50.848;6.776;2022-12-18T01:03:13;101729.81;;;0.77;60.20
72548;BME280;60570;50.848;6.776;2022-12-18T01:04:14;101733.13;;;0.79;60.08
72548;BME280;60570;50.848;6.776;2022-12-18T01:05:15;101734.44;;;0.76;60.12
72548;BME280;60570;50.848;6.776;2022-12-18T01:06:16;101726.56;;;0.80;60.23
72548;BME280;60570;50.848;6.776;2022-12-18T01:07:16;101723.50;;;0.76;60.16
72548;BME280;60570;50.848;6.776;2022-12-18T01:08:17;101731.13;;;0.74;60.28
72548;BME280;60570;50.848;6.776;2022-12-18T01:09:17;101729.31;;;0.80;60.02
72548;BME280;60570;50.848;6.776;2022-12-18T01:10:18;101738.72;;;0.72;60.05
72548;BME280;60570;50.848;6.776;2022-12-18T01:11:20;101733.84;;;0.74;60.35
72548;BME280;60570;50.848;6.776;2022-12-18T01:12:20;101738.25;;;0.75;59.96
72548;BME280;60570;50.848;6.776;2022-12-18T01:13:21;101730.75;;;0.71;60.08
72548;BME280;60570;50.848;6.776;2022-12-18T01:14:21;101736.72;;;0.68;60.10
72548;BME280;60570;50.848;6.776;2022-12-18T01:15:22;101736.56;;;0.74;60.14
72548;BME280;60570;50.848;6.776;2022-12-18T01:16:22;101733.25;;;0.72;60.36
72548;BME280;60570;50.848;6.776;2022-12-18T01:17:23;101737.41;;;0.75;59.84
72548;BME280;60570;50.848;6.776;2022-12-18T01:18:24;101738.38;;;0.69;60.21
72548;BME280;60570;50.848;6.776;2022-12-18T01:19:24;101739.56;;;0.73;60.26
72548;BME280;60570;50.848;6.776;2022-12-18T01:20:25;101739.56;;;0.73;60.15
72548;BME280;60570;50.848;6.776;2022-12-18T01:21:25;101737.06;;;0.71;59.92
72548;BME280;60570;50.848;6.776;2022-12-18T01:22:26;101738.63;;;0.67;60.14
72548;BME280;60570;50.848;6.776;2022-12-18T01:23:26;101738.38;;;0.69;59.93
72548;BME280;60570;50.848;6.776;2022-12-18T01:24:27;101733.16;;;0.67;60.12
72548;BME280;60570;50.848;6.776;2022-12-18T01:25:27;101735.28;;;0.65;60.18
72548;BME280;60570;50.848;6.776;2022-12-18T01:26:28;101733.84;;;0.74;60.15
72548;BME280;60570;50.848;6.776;2022-12-18T01:27:29;101733.41;;;0.66;60.05
72548;BME280;60570;50.848;6.776;2022-12-18T01:28:30;101726.00;;;0.66;60.02
72548;BME280;60570;50.848;6.776;2022-12-18T01:29:30;101734.81;;;0.68;60.27
72548;BME280;60570;50.848;6.776;2022-12-18T01:30:31;101730.88;;;0.76;59.84
72548;BME280;60570;50.848;6.776;2022-12-18T01:31:33;101731.13;;;0.74;60.02
72548;BME280;60570;50.848;6.776;2022-12-18T01:32:34;101725.31;;;0.71;60.09
72548;BME280;60570;50.848;6.776;2022-12-18T01:33:34;101723.88;;;0.68;60.15
72548;BME280;60570;50.848;6.776;2022-12-18T01:34:36;101727.69;;;0.67;60.12
72548;BME280;60570;50.848;6.776;2022-12-18T01:35:41;101716.84;;;0.72;60.01
72548;BME280;60570;50.848;6.776;2022-12-18T01:36:42;101717.78;;;0.78;59.90
72548;BME280;60570;50.848;6.776;2022-12-18T01:37:42;101714.94;;;0.73;60.15
72548;BME280;60570;50.848;6.776;2022-12-18T01:38:43;101711.97;;;0.74;59.75
72548;BME280;60570;50.848;6.776;2022-12-18T01:39:43;101717.44;;;0.74;59.95
72548;BME280;60570;50.848;6.776;2022-12-18T01:40:44;101712.22;;;0.73;59.84
72548;BME280;60570;50.848;6.776;2022-12-18T01:41:45;101718.31;;;0.63;59.82
72548;BME280;60570;50.848;6.776;2022-12-18T01:43:03;101718.66;;;0.67;60.05
72548;BME280;60570;50.848;6.776;2022-12-18T01:45:42;101725.63;;;0.74;59.54
72548;BME280;60570;50.848;6.776;2022-12-18T01:46:43;101721.00;;;0.75;59.75
72548;BME280;60570;50.848;6.776;2022-12-18T01:48:56;101730.41;;;0.67;60.11
72548;BME280;60570;50.848;6.776;2022-12-18T01:49:59;101727.34;;;0.64;60.05
72548;BME280;60570;50.848;6.776;2022-12-18T01:51:01;101722.34;;;0.61;60.07
72548;BME280;60570;50.848;6.776;2022-12-18T01:52:01;101726.38;;;0.58;59.97
72548;BME280;60570;50.848;6.776;2022-12-18T01:53:14;101718.06;;;0.53;60.16
72548;BME280;60570;50.848;6.776;2022-12-18T01:54:15;101720.44;;;0.61;60.00
72548;BME280;60570;50.848;6.776;2022-12-18T01:55:18;101725.56;;;0.58;60.04
72548;BME280;60570;50.848;6.776;2022-12-18T01:56:20;101728.66;;;0.61;59.95
72548;BME280;60570;50.848;6.776;2022-12-18T01:57:23;101729.94;;;0.59;60.05
72548;BME280;60570;50.848;6.776;2022-12-18T01:59:31;101727.47;;;0.57;60.10
72548;BME280;60570;50.848;6.776;2022-12-18T02:00:33;101726.88;;;0.55;59.94
72548;BME280;60570;50.848;6.776;2022-12-18T02:01:34;101711.16;;;0.62;60.19
72548;BME280;60570;50.848;6.776;2022-12-18T02:02:36;101717.22;;;0.64;59.80
72548;BME280;60570;50.848;6.776;2022-12-18T02:03:41;101713.31;;;0.60;60.08
72548;BME280;60570;50.848;6.776;2022-12-18T02:04:41;101719.50;;;0.56;60.02
72548;BME280;60570;50.848;6.776;2022-12-18T02:05:55;101709.63;;;0.55;60.21
72548;BME280;60570;50.848;6.776;2022-12-18T02:07:07;101708.66;;;0.61;60.12
72548;BME280;60570;50.848;6.776;2022-12-18T02:08:20;101720.78;;;0.65;59.71
72548;BME280;60570;50.848;6.776;2022-12-18T02:09:32;101714.03;;;0.67;59.92
72548;BME280;60570;50.848;6.776;2022-12-18T02:13:14;101715.28;;;0.76;59.47
72548;BME280;60570;50.848;6.776;2022-12-18T02:14:38;101716.47;;;0.80;59.49
72548;BME280;60570;50.848;6.776;2022-12-18T02:15:47;101721.63;;;0.65;59.29
72548;BME280;60570;50.848;6.776;2022-12-18T02:16:59;101714.97;;;0.61;59.91
72548;BME280;60570;50.848;6.776;2022-12-18T02:18:07;101705.81;;;0.67;59.46
72548;BME280;60570;50.848;6.776;2022-12-18T02:19:32;101709.00;;;0.64;59.78
72548;BME280;60570;50.848;6.776;2022-12-18T02:21:54;101714.50;;;0.53;59.71
72548;BME280;60570;50.848;6.776;2022-12-18T02:26:05;101717.19;;;0.76;59.45
72548;BME280;60570;50.848;6.776;2022-12-18T02:27:09;101719.25;;;0.69;59.26
72548;BME280;60570;50.848;6.776;2022-12-18T02:28:13;101714.47;;;0.64;59.65
72548;BME280;60570;50.848;6.776;2022-12-18T02:29:51;101710.47;;;0.55;59.61
72548;BME280;60570;50.848;6.776;2022-12-18T02:30:53;101708.44;;;0.51;60.05
72548;BME280;60570;50.848;6.776;2022-12-18T02:31:58;101715.34;;;0.53;60.01
72548;BME280;60570;50.848;6.776;2022-12-18T02:32:59;101710.97;;;0.52;59.94
72548;BME280;60570;50.848;6.776;2022-12-18T02:34:02;101702.50;;;0.65;59.78
72548;BME280;60570;50.848;6.776;2022-12-18T02:35:09;101709.88;;;0.53;60.09
72548;BME280;60570;50.848;6.776;2022-12-18T02:36:12;101706.19;;;0.59;59.73
72548;BME280;60570;50.848;6.776;2022-12-18T02:37:16;101703.09;;;0.67;59.55
72548;BME280;60570;50.848;6.776;2022-12-18T02:38:18;101706.69;;;0.56;59.65
72548;BME280;60570;50.848;6.776;2022-12-18T02:39:20;101707.72;;;0.55;59.85
72548;BME280;60570;50.848;6.776;2022-12-18T02:40:24;101713.31;;;0.60;59.70
72548;BME280;60570;50.848;6.776;2022-12-18T02:41:26;101711.13;;;0.74;59.24
72548;BME280;60570;50.848;6.776;2022-12-18T02:42:28;101709.97;;;0.70;59.51
72548;BME280;60570;50.848;6.776;2022-12-18T02:43:29;101715.22;;;0.60;59.49
72548;BME280;60570;50.848;6.776;2022-12-18T02:44:29;101712.59;;;0.53;59.50
72548;BME280;60570;50.848;6.776;2022-12-18T02:45:30;101713.53;;;0.59;59.18
72548;BME280;60570;50.848;6.776;2022-12-18T02:46:49;101712.72;;;0.58;59.59
72548;BME280;60570;50.848;6.776;2022-12-18T02:47:50;101709.19;;;0.46;59.62
72548;BME280;60570;50.848;6.776;2022-12-18T02:48:52;101705.25;;;0.54;59.85
72548;BME280;60570;50.848;6.776;2022-12-18T02:50:14;101704.88;;;0.62;59.35
72548;BME280;60570;50.848;6.776;2022-12-18T02:51:27;101696.06;;;0.71;59.09
72548;BME280;60570;50.848;6.776;2022-12-18T02:52:42;101707.63;;;0.62;58.96
72548;BME280;60570;50.848;6.776;2022-12-18T02:53:53;101707.25;;;0.58;59.22
72548;BME280;60570;50.848;6.776;2022-12-18T02:56:38;101702.16;;;0.50;59.31
72548;BME280;60570;50.848;6.776;2022-12-18T02:57:49;101706.22;;;0.48;59.50
72548;BME280;60570;50.848;6.776;2022-12-18T02:59:11;101711.31;;;0.56;59.38
72548;BME280;60570;50.848;6.776;2022-12-18T03:00:21;101708.56;;;0.56;59.11
72548;BME280;60570;50.848;6.776;2022-12-18T03:01:55;101712.50;;;0.60;59.21
72548;BME280;60570;50.848;6.776;2022-12-18T03:03:12;101706.66;;;0.68;58.94
72548;BME280;60570;50.848;6.776;2022-12-18T03:04:20;101713.44;;;0.54;59.31
72548;BME280;60570;50.848;6.776;2022-12-18T03:05:30;101715.09;;;0.55;59.27
72548;BME280;60570;50.848;6.776;2022-12-18T03:06:46;101719.16;;;0.64;58.97
72548;BME280;60570;50.848;6.776;2022-12-18T03:07:53;101714.03;;;0.67;59.01
72548;BME280;60570;50.848;6.776;2022-12-18T03:08:59;101712.16;;;0.56;58.69
72548;BME280;60570;50.848;6.776;2022-12-18T03:10:03;101701.91;;;0.63;59.09
72548;BME280;60570;50.848;6.776;2022-12-18T03:11:08;101708.22;;;0.64;58.79
72548;BME280;60570;50.848;6.776;2022-12-18T03:12:17;101703.69;;;0.58;59.05
72548;BME280;60570;50.848;6.776;2022-12-18T03:13:33;101698.81;;;0.71;58.61
72548;BME280;60570;50.848;6.776;2022-12-18T03:14:37;101698.22;;;0.58;58.92
72548;BME280;60570;50.848;6.776;2022-12-18T03:15:42;101695.88;;;0.50;58.96
72548;BME280;60570;50.848;6.776;2022-12-18T03:16:45;101695.63;;;0.51;59.06
72548;BME280;60570;50.848;6.776;2022-12-18T03:18:10;101693.13;;;0.50;59.15
72548;BME280;60570;50.848;6.776;2022-12-18T03:19:18;101691.44;;;0.49;59.08
72548;BME280;60570;50.848;6.776;2022-12-18T03:20:21;101687.91;;;0.48;59.40
72548;BME280;60570;50.848;6.776;2022-12-18T03:21:29;101692.88;;;0.51;58.92
72548;BME280;60570;50.848;6.776;2022-12-18T03:22:33;101685.19;;;0.48;59.33
72548;BME280;60570;50.848;6.776;2022-12-18T03:23:40;101683.13;;;0.55;58.90
72548;BME280;60570;50.848;6.776;2022-12-18T03:24:42;101686.97;;;0.43;59.23
72548;BME280;60570;50.848;6.776;2022-12-18T03:25:44;101688.72;;;0.49;59.35
72548;BME280;60570;50.848;6.776;2022-12-18T03:26:50;101687.53;;;0.45;58.90
72548;BME280;60570;50.848;6.776;2022-12-18T03:27:55;101672.19;;;0.55;58.82
72548;BME280;60570;50.848;6.776;2022-12-18T03:29:02;101682.75;;;0.63;58.66
72548;BME280;60570;50.848;6.776;2022-12-18T03:30:08;101677.63;;;0.67;58.32
72548;BME280;60570;50.848;6.776;2022-12-18T03:31:11;101684.28;;;0.71;58.48
72548;BME280;60570;50.848;6.776;2022-12-18T03:32:26;101678.38;;;0.51;58.47
72548;BME280;60570;50.848;6.776;2022-12-18T03:33:34;101670.34;;;0.44;58.79
72548;BME280;60570;50.848;6.776;2022-12-18T03:34:40;101669.13;;;0.52;58.71
72548;BME280;60570;50.848;6.776;2022-12-18T03:35:42;101672.47;;;0.42;58.92
72548;BME280;60570;50.848;6.776;2022-12-18T03:36:43;101671.97;;;0.45;58.62
72548;BME280;60570;50.848;6.776;2022-12-18T03:37:44;101679.94;;;0.47;59.07
72548;BME280;60570;50.848;6.776;2022-12-18T03:38:44;101682.06;;;0.45;59.02
72548;BME280;60570;50.848;6.776;2022-12-18T03:39:45;101688.72;;;0.49;59.05
72548;BME280;60570;50.848;6.776;2022-12-18T03:41:13;101680.91;;;0.41;59.15
72548;BME280;60570;50.848;6.776;2022-12-18T03:45:54;101682.91;;;0.45;59.19
72548;BME280;60570;50.848;6.776;2022-12-18T03:47:19;101683.75;;;0.46;58.89
72548;BME280;60570;50.848;6.776;2022-12-18T03:48:31;101670.44;;;0.38;59.21
72548;BME280;60570;50.848;6.776;2022-12-18T03:49:47;101676.41;;;0.35;59.35
72548;BME280;60570;50.848;6.776;2022-12-18T03:50:59;101670.09;;;0.46;59.16
72548;BME280;60570;50.848;6.776;2022-12-18T03:52:09;101673.69;;;0.35;59.33
72548;BME280;60570;50.848;6.776;2022-12-18T03:54:32;101680.69;;;0.31;59.59
72548;BME280;60570;50.848;6.776;2022-12-18T03:55:35;101670.19;;;0.39;59.32
72548;BME280;60570;50.848;6.776;2022-12-18T03:56:41;101671.88;;;0.40;59.32
72548;BME280;60570;50.848;6.776;2022-12-18T03:57:44;101661.06;;;0.34;59.51
72548;BME280;60570;50.848;6.776;2022-12-18T03:58:45;101673.09;;;0.33;59.58
72548;BME280;60570;50.848;6.776;2022-12-18T03:59:51;101659.88;;;0.30;59.39
72548;BME280;60570;50.848;6.776;2022-12-18T04:00:56;101672.50;;;0.31;59.47
72548;BME280;60570;50.848;6.776;2022-12-18T04:01:57;101665.59;;;0.28;59.64
72548;BME280;60570;50.848;6.776;2022-12-18T04:03:00;101671.06;;;0.28;59.55
72548;BME280;60570;50.848;6.776;2022-12-18T04:04:02;101668.22;;;0.23;59.71
72548;BME280;60570;50.848;6.776;2022-12-18T04:05:04;101667.50;;;0.28;59.43
72548;BME280;60570;50.848;6.776;2022-12-18T04:06:06;101676.53;;;0.28;59.72
72548;BME280;60570;50.848;6.776;2022-12-18T04:07:07;101673.78;;;0.28;59.49
72548;BME280;60570;50.848;6.776;2022-12-18T04:08:08;101668.81;;;0.25;59.50
72548;BME280;60570;50.848;6.776;2022-12-18T04:09:09;101669.50;;;0.32;59.52
72548;BME280;60570;50.848;6.776;2022-12-18T04:10:12;101667.50;;;0.28;59.23
72548;BME280;60570;50.848;6.776;2022-12-18T04:11:13;101666.53;;;0.34;59.38
72548;BME280;60570;50.848;6.776;2022-12-18T04:12:13;101658.94;;;0.24;59.60
72548;BME280;60570;50.848;6.776;2022-12-18T04:13:28;101665.25;;;0.25;59.56
72548;BME280;60570;50.848;6.776;2022-12-18T04:14:29;101661.06;;;0.34;59.45
72548;BME280;60570;50.848;6.776;2022-12-18T04:15:31;101655.72;;;0.39;59.20
72548;BME280;60570;50.848;6.776;2022-12-18T04:16:33;101663.22;;;0.32;59.21
72548;BME280;60570;50.848;6.776;2022-12-18T04:17:33;101665.91;;;0.43;59.12
72548;BME280;60570;50.848;6.776;2022-12-18T04:18:34;101660.13;;;0.40;59.24
72548;BME280;60570;50.848;6.776;2022-12-18T04:19:34;101660.81;;;0.35;59.25
72548;BME280;60570;50.848;6.776;2022-12-18T04:20:35;101659.88;;;0.30;59.21
72548;BME280;60570;50.848;6.776;2022-12-18T04:21:35;101654.91;;;0.27;59.46
72548;BME280;60570;50.848;6.776;2022-12-18T04:22:35;101660.84;;;0.24;59.35
72548;BME280;60570;50.848;6.776;2022-12-18T04:23:36;101655.50;;;0.29;59.39
72548;BME280;60570;50.848;6.776;2022-12-18T04:24:36;101653.81;;;0.39;58.98
72548;BME280;60570;50.848;6.776;2022-12-18T04:25:37;101657.88;;;0.37;59.26
72548;BME280;60570;50.848;6.776;2022-12-18T04:26:37;101661.31;;;0.32;59.13
72548;BME280;60570;50.848;6.776;2022-12-18T04:27:38;101660.22;;;0.33;59.17
72548;BME280;60570;50.848;6.776;2022-12-18T04:28:39;101663.56;;;0.35;59.46
72548;BME280;60570;50.848;6.776;2022-12-18T04:29:39;101656.91;;;0.31;59.13
72548;BME280;60570;50.848;6.776;2022-12-18T04:30:40;101652.19;;;0.27;59.16
72548;BME280;60570;50.848;6.776;2022-12-18T04:31:40;101655.94;;;0.37;59.31
72548;BME280;60570;50.848;6.776;2022-12-18T04:32:40;101650.28;;;0.39;59.25
72548;BME280;60570;50.848;6.776;2022-12-18T04:33:42;101646.81;;;0.32;59.50
72548;BME280;60570;50.848;6.776;2022-12-18T04:34:42;101649.69;;;0.37;58.97
72548;BME280;60570;50.848;6.776;2022-12-18T04:35:43;101645.25;;;0.47;58.78
72548;BME280;60570;50.848;6.776;2022-12-18T04:36:43;101648.56;;;0.49;58.79
72548;BME280;60570;50.848;6.776;2022-12-18T04:37:44;101647.28;;;0.40;58.67
72548;BME280;60570;50.848;6.776;2022-12-18T04:38:44;101647.63;;;0.44;58.77
72548;BME280;60570;50.848;6.776;2022-12-18T04:39:45;101640.28;;;0.33;58.87
72548;BME280;60570;50.848;6.776;2022-12-18T04:40:46;101638.50;;;0.38;58.85
72548;BME280;60570;50.848;6.776;2022-12-18T04:41:46;101648.63;;;0.26;58.90
72548;BME280;60570;50.848;6.776;2022-12-18T04:42:47;101649.31;;;0.22;59.39
72548;BME280;60570;50.848;6.776;2022-12-18T04:43:47;101641.25;;;0.27;59.11
72548;BME280;60570;50.848;6.776;2022-12-18T04:44:48;101648.84;;;0.25;59.23
72548;BME280;60570;50.848;6.776;2022-12-18T04:45:49;101645.78;;;0.21;59.40
72548;BME280;60570;50.848;6.776;2022-12-18T04:46:49;101643.84;;;0.22;59.15
72548;BME280;60570;50.848;6.776;2022-12-18T04:47:49;101645.50;;;0.34;58.93
72548;BME280;60570;50.848;6.776;2022-12-18T04:48:50;101651.94;;;0.28;59.11
72548;BME280;60570;50.848;6.776;2022-12-18T04:49:50;101635.06;;;0.31;58.82
72548;BME280;60570;50.848;6.776;2022-12-18T04:50:50;101640.91;;;0.23;59.00
72548;BME280;60570;50.848;6.776;2022-12-18T04:51:51;101640.31;;;0.21;59.25
72548;BME280;60570;50.848;6.776;2022-12-18T04:52:53;101633.06;;;0.27;59.02
72548;BME280;60570;50.848;6.776;2022-12-18T04:53:53;101630.41;;;0.32;59.01
72548;BME280;60570;50.848;6.776;2022-12-18T04:54:54;101626.16;;;0.24;58.95
72548;BME280;60570;50.848;6.776;2022-12-18T04:56:09;101630.06;;;0.28;59.10
72548;BME280;60570;50.848;6.776;2022-12-18T04:57:10;101629.50;;;0.26;58.91
72548;BME280;60570;50.848;6.776;2022-12-18T04:58:10;101628.63;;;0.37;58.72
72548;BME280;60570;50.848;6.776;2022-12-18T04:59:10;101627.66;;;0.43;58.51
72548;BME280;60570;50.848;6.776;2022-12-18T05:00:11;101620.56;;;0.42;58.61
72548;BME280;60570;50.848;6.776;2022-12-18T05:01:14;101623.78;;;0.28;58.71
72548;BME280;60570;50.848;6.776;2022-12-18T05:02:15;101619.06;;;0.23;58.85
72548;BME280;60570;50.848;6.776;2022-12-18T05:03:15;101630.09;;;0.17;58.84
72548;BME280;60570;50.848;6.776;2022-12-18T05:04:16;101631.50;;;0.31;58.75
72548;BME280;60570;50.848;6.776;2022-12-18T05:05:16;101624.72;;;0.22;58.84
72548;BME280;60570;50.848;6.776;2022-12-18T05:06:17;101620.09;;;0.22;59.24
72548;BME280;60570;50.848;6.776;2022-12-18T05:07:18;101621.31;;;0.15;59.10
72548;BME280;60570;50.848;6.776;2022-12-18T05:08:18;101628.41;;;0.16;59.38
72548;BME280;60570;50.848;6.776;2022-12-18T05:09:19;101620.97;;;0.11;59.19
72548;BME280;60570;50.848;6.776;2022-12-18T05:10:19;101623.78;;;0.16;59.18
72548;BME280;60570;50.848;6.776;2022-12-18T05:11:19;101624.72;;;0.22;58.81
72548;BME280;60570;50.848;6.776;2022-12-18T05:12:20;101634.72;;;0.16;59.38
72548;BME280;60570;50.848;6.776;2022-12-18T05:13:20;101625.44;;;0.29;58.80
72548;BME280;60570;50.848;6.776;2022-12-18T05:14:20;101625.69;;;0.39;58.57
72548;BME280;60570;50.848;6.776;2022-12-18T05:15:21;101626.50;;;0.28;58.71
72548;BME280;60570;50.848;6.776;2022-12-18T05:16:21;101614.78;;;0.27;58.78
72548;BME280;60570;50.848;6.776;2022-12-18T05:17:22;101620.34;;;0.21;58.77
72548;BME280;60570;50.848;6.776;2022-12-18T05:18:23;101611.56;;;0.19;58.80
72548;BME280;60570;50.848;6.776;2022-12-18T05:19:24;101623.44;;;0.24;58.67
72548;BME280;60570;50.848;6.776;2022-12-18T05:20:25;101612.59;;;0.29;58.62
72548;BME280;60570;50.848;6.776;2022-12-18T05:21:25;101616.31;;;0.23;58.75
72548;BME280;60570;50.848;6.776;2022-12-18T05:22:26;101621.63;;;0.30;58.59
72548;BME280;60570;50.848;6.776;2022-12-18T05:23:27;101627.06;;;0.41;58.10
72548;BME280;60570;50.848;6.776;2022-12-18T05:24:27;101620.25;;;0.27;58.49
72548;BME280;60570;50.848;6.776;2022-12-18T05:25:28;101628.44;;;0.27;58.57
72548;BME280;60570;50.848;6.776;2022-12-18T05:26:29;101629.97;;;0.23;58.56
72548;BME280;60570;50.848;6.776;2022-12-18T05:27:29;101633.41;;;0.30;58.53
72548;BME280;60570;50.848;6.776;2022-12-18T05:28:31;101641.63;;;0.19;58.90
72548;BME280;60570;50.848;6.776;2022-12-18T05:29:32;101642.56;;;0.24;58.37
72548;BME280;60570;50.848;6.776;2022-12-18T05:30:34;101649.91;;;0.24;58.50
72548;BME280;60570;50.848;6.776;2022-12-18T05:31:34;101643.50;;;0.18;58.80
72548;BME280;60570;50.848;6.776;2022-12-18T05:32:34;101639.91;;;0.29;58.39
72548;BME280;60570;50.848;6.776;2022-12-18T05:33:35;101642.66;;;0.18;58.75
72548;BME280;60570;50.848;6.776;2022-12-18T05:34:36;101642.06;;;0.16;58.70
72548;BME280;60570;50.848;6.776;2022-12-18T05:35:36;101647.44;;;0.11;58.78
72548;BME280;60570;50.848;6.776;2022-12-18T05:36:36;101641.13;;;0.22;58.67
72548;BME280;60570;50.848;6.776;2022-12-18T05:37:37;101652.53;;;0.19;58.64
72548;BME280;60570;50.848;6.776;2022-12-18T05:38:38;101649.69;;;0.25;58.67
72548;BME280;60570;50.848;6.776;2022-12-18T05:39:39;101648.88;;;0.13;58.78
72548;BME280;60570;50.848;6.776;2022-12-18T05:40:42;101657.91;;;0.14;59.18
72548;BME280;60570;50.848;6.776;2022-12-18T05:41:43;101651.34;;;0.15;58.73
72548;BME280;60570;50.848;6.776;2022-12-18T05:42:44;101661.69;;;0.24;58.72
72548;BME280;60570;50.848;6.776;2022-12-18T05:43:44;101657.75;;;0.20;58.62
72548;BME280;60570;50.848;6.776;2022-12-18T05:44:44;101659.06;;;0.18;58.79
72548;BME280;60570;50.848;6.776;2022-12-18T05:45:45;101658.25;;;0.29;58.76
72548;BME280;60570;50.848;6.776;2022-12-18T05:46:45;101668.91;;;0.30;58.32
72548;BME280;60570;50.848;6.776;2022-12-18T05:47:46;101665.22;;;0.36;58.26
72548;BME280;60570;50.848;6.776;2022-12-18T05:48:46;101667.84;;;0.20;58.40
72548;BME280;60570;50.848;6.776;2022-12-18T05:49:48;101678.06;;;0.24;58.47
72548;BME280;60570;50.848;6.776;2022-12-18T05:50:49;101669.75;;;0.31;58.42
72548;BME280;60570;50.848;6.776;2022-12-18T05:51:50;101682.34;;;0.32;58.21
72548;BME280;60570;50.848;6.776;2022-12-18T05:52:50;101679.00;;;0.30;58.53